createdAt,value
2022-11-24T00:01:31.345Z,99644.05
2022-11-24T00:04:03.220Z,99644.58
2022-11-24T00:06:34.426Z,99650.61
2022-11-24T00:09:04.787Z,99653.55
2022-11-24T00:11:36.717Z,99660.06
2022-11-24T00:14:06.499Z,99662.80
2022-11-24T00:16:37.072Z,99661.27
2022-11-24T00:19:09.555Z,99665.91
2022-11-24T00:21:39.236Z,99670.06
2022-11-24T00:24:07.937Z,99671.13
2022-11-24T00:26:40.021Z,99665.70
2022-11-24T00:29:09.934Z,99664.54
2022-11-24T00:31:40.719Z,99659.95
2022-11-24T00:34:14.181Z,99654.02
2022-11-24T00:36:43.273Z,99650.14
2022-11-24T00:39:13.813Z,99648.27
2022-11-24T00:41:43.902Z,99645.55
2022-11-24T00:44:24.952Z,99648.30
2022-11-24T00:46:53.714Z,99654.98
2022-11-24T00:49:22.345Z,99654.11
2022-11-24T00:51:51.498Z,99658.54
2022-11-24T00:54:20.168Z,99652.58
2022-11-24T00:56:48.749Z,99657.84
2022-11-24T00:59:17.326Z,99656.98
2022-11-24T01:01:45.892Z,99656.11
2022-11-24T01:04:15.377Z,99655.58
2022-11-24T01:06:43.901Z,99657.25
2022-11-24T01:09:12.487Z,99660.80
2022-11-24T01:11:59.909Z,99665.86
2022-11-24T01:14:29.609Z,99671.16
2022-11-24T01:16:58.612Z,99672.38
2022-11-24T01:19:27.390Z,99676.02
2022-11-24T01:21:55.925Z,99679.14
2022-11-24T01:24:24.579Z,99682.58
2022-11-24T01:26:53.117Z,99681.23
2022-11-24T01:29:21.806Z,99678.69
2022-11-24T01:31:50.310Z,99676.81
2022-11-24T01:34:18.914Z,99673.77
2022-11-24T01:36:47.495Z,99676.17
2022-11-24T01:39:16.151Z,99674.98
2022-11-24T01:41:44.777Z,99671.77
2022-11-24T01:44:42.781Z,99671.59
2022-11-24T01:47:35.715Z,99670.91
2022-11-24T01:50:06.175Z,99668.36
2022-11-24T01:52:47.358Z,99671.44
2022-11-24T01:55:20.986Z,99674.86
2022-11-24T01:57:58.069Z,99676.92
2022-11-24T02:00:26.742Z,99678.14
2022-11-24T02:02:55.592Z,99674.41
2022-11-24T02:05:35.672Z,99672.69
2022-11-24T02:08:06.621Z,99674.66
2022-11-24T02:10:36.493Z,99673.98
2022-11-24T02:13:05.696Z,99673.10
2022-11-24T02:15:35.741Z,99674.44
2022-11-24T02:18:04.630Z,99679.88
2022-11-24T02:20:34.591Z,99677.29
2022-11-24T02:23:28.829Z,99679.13
2022-11-24T02:26:11.403Z,99680.16
2022-11-24T02:28:40.379Z,99679.14
2022-11-24T02:31:09.612Z,99683.58
2022-11-24T02:33:38.559Z,99683.08
2022-11-24T02:36:07.370Z,99683.41
2022-11-24T02:38:36.551Z,99685.12
2022-11-24T02:41:13.437Z,99685.13
2022-11-24T02:43:51.092Z,99679.65
2022-11-24T02:46:19.505Z,99685.24
2022-11-24T02:48:48.304Z,99675.55
2022-11-24T02:51:16.795Z,99673.27
2022-11-24T02:53:45.465Z,99670.30
2022-11-24T02:56:13.879Z,99675.88
2022-11-24T02:58:42.361Z,99679.98
2022-11-24T03:01:10.869Z,99682.05
2022-11-24T03:03:39.576Z,99681.33
2022-11-24T03:06:07.975Z,99681.14
2022-11-24T03:08:36.325Z,99680.73
2022-11-24T03:11:05.012Z,99677.84
2022-11-24T03:13:33.964Z,99680.27
2022-11-24T03:16:02.522Z,99679.27
2022-11-24T03:18:30.949Z,99677.02
2022-11-24T03:21:00.462Z,99680.75
2022-11-24T03:23:29.007Z,99677.48
2022-11-24T03:26:08.346Z,99682.60
2022-11-24T03:28:37.130Z,99685.33
2022-11-24T03:31:06.653Z,99683.31
2022-11-24T03:33:35.962Z,99680.44
2022-11-24T03:36:06.072Z,99680.63
2022-11-24T03:38:34.552Z,99680.80
2022-11-24T03:41:03.029Z,99680.70
2022-11-24T03:43:31.521Z,99685.38
2022-11-24T03:46:00.034Z,99688.95
2022-11-24T03:48:28.683Z,99693.70
2022-11-24T03:51:01.373Z,99690.97
2022-11-24T03:53:32.018Z,99694.02
2022-11-24T03:56:02.388Z,99694.67
2022-11-24T03:58:31.417Z,99701.83
2022-11-24T04:00:59.918Z,99701.29
2022-11-24T04:03:28.783Z,99703.77
2022-11-24T04:05:57.258Z,99707.47
2022-11-24T04:08:25.728Z,99714.13
2022-11-24T04:10:55.018Z,99715.41
2022-11-24T04:13:26.281Z,99716.02
2022-11-24T04:15:54.889Z,99721.35
2022-11-24T04:18:23.465Z,99721.91
2022-11-24T04:20:52.606Z,99726.53
2022-11-24T04:23:20.992Z,99728.02
2022-11-24T04:25:50.186Z,99729.04
2022-11-24T04:28:19.299Z,99730.76
2022-11-24T04:30:47.805Z,99733.19
2022-11-24T04:33:16.185Z,99732.73
2022-11-24T04:35:44.628Z,99737.78
2022-11-24T04:38:12.976Z,99735.33
2022-11-24T04:41:04.906Z,99732.89
2022-11-24T04:44:01.910Z,99734.77
2022-11-24T04:46:30.333Z,99741.05
2022-11-24T04:48:58.880Z,99742.28
2022-11-24T04:51:27.329Z,99740.92
2022-11-24T04:53:55.809Z,99741.86
2022-11-24T04:56:24.237Z,99743.11
2022-11-24T04:58:52.637Z,99744.17
2022-11-24T05:01:21.029Z,99751.38
2022-11-24T05:03:49.498Z,99754.02
2022-11-24T05:06:17.915Z,99757.07
2022-11-24T05:08:53.200Z,99758.63
2022-11-24T05:11:21.662Z,99763.84
2022-11-24T05:13:50.059Z,99767.89
2022-11-24T05:16:18.627Z,99771.10
2022-11-24T05:18:47.042Z,99772.13
2022-11-24T05:21:15.550Z,99766.66
2022-11-24T05:23:43.930Z,99763.23
2022-11-24T05:26:12.427Z,99764.05
2022-11-24T05:28:40.825Z,99761.77
2022-11-24T05:31:09.358Z,99766.87
2022-11-24T05:33:38.577Z,99767.73
2022-11-24T05:36:07.483Z,99770.55
2022-11-24T05:38:35.952Z,99769.11
2022-11-24T05:41:06.303Z,99771.05
2022-11-24T05:43:53.684Z,99771.66
2022-11-24T05:46:22.130Z,99768.83
2022-11-24T05:48:50.599Z,99773.77
2022-11-24T05:51:19.133Z,99777.02
2022-11-24T05:53:47.497Z,99777.91
2022-11-24T05:56:15.950Z,99779.31
2022-11-24T05:58:44.391Z,99781.98
2022-11-24T06:01:12.768Z,99785.46
2022-11-24T06:03:41.838Z,99787.41
2022-11-24T06:06:11.074Z,99794.61
2022-11-24T06:08:39.670Z,99800.94
2022-11-24T06:11:19.942Z,99808.64
2022-11-24T06:13:51.745Z,99807.98
2022-11-24T06:16:20.642Z,99807.81
2022-11-24T06:18:49.147Z,99807.12
2022-11-24T06:21:17.618Z,99808.04
2022-11-24T06:23:49.633Z,99806.89
2022-11-24T06:26:21.086Z,99811.67
2022-11-24T06:28:49.467Z,99809.66
2022-11-24T06:31:18.025Z,99814.97
2022-11-24T06:33:47.236Z,99819.09
2022-11-24T06:36:15.838Z,99826.42
2022-11-24T06:38:44.267Z,99829.87
2022-11-24T06:41:15.010Z,99829.02
2022-11-24T06:43:43.544Z,99832.26
2022-11-24T06:46:12.668Z,99835.83
2022-11-24T06:48:41.267Z,99837.55
2022-11-24T06:51:13.415Z,99838.96
2022-11-24T06:53:41.876Z,99840.17
2022-11-24T06:56:16.163Z,99842.70
2022-11-24T06:58:47.822Z,99842.52
2022-11-24T07:01:21.999Z,99847.76
2022-11-24T07:03:51.703Z,99845.68
2022-11-24T07:06:21.609Z,99847.55
2022-11-24T07:08:51.174Z,99852.01
2022-11-24T07:11:22.882Z,99852.75
2022-11-24T07:13:55.130Z,99852.93
2022-11-24T07:16:29.058Z,99853.95
2022-11-24T07:18:58.330Z,99857.12
2022-11-24T07:21:28.138Z,99855.42
2022-11-24T07:23:58.075Z,99854.39
2022-11-24T07:26:27.314Z,99854.73
2022-11-24T07:28:55.879Z,99855.60
2022-11-24T07:31:27.311Z,99851.66
2022-11-24T07:33:55.949Z,99856.20
2022-11-24T07:36:25.189Z,99859.35
2022-11-24T07:38:53.588Z,99862.35
2022-11-24T07:41:22.394Z,99862.69
2022-11-24T07:43:51.997Z,99863.71
2022-11-24T07:46:21.014Z,99867.59
2022-11-24T07:48:49.567Z,99864.80
2022-11-24T07:51:18.009Z,99868.33
2022-11-24T07:53:46.649Z,99868.51
2022-11-24T07:56:15.298Z,99865.73
2022-11-24T07:58:45.966Z,99869.75
2022-11-24T08:01:18.496Z,99878.20
2022-11-24T08:03:47.658Z,99881.89
2022-11-24T08:06:25.067Z,99884.02
2022-11-24T08:08:57.317Z,99883.86
2022-11-24T08:11:26.579Z,99880.14
2022-11-24T08:13:55.562Z,99883.16
2022-11-24T08:16:24.315Z,99887.27
2022-11-24T08:18:55.038Z,99895.54
2022-11-24T08:21:24.307Z,99896.09
2022-11-24T08:23:57.066Z,99897.82
2022-11-24T08:26:26.420Z,99889.44
2022-11-24T08:28:58.028Z,99887.30
2022-11-24T08:31:33.788Z,99885.10
2022-11-24T08:34:04.046Z,99889.92
2022-11-24T08:36:33.532Z,99896.77
2022-11-24T08:39:03.058Z,99898.83
2022-11-24T08:41:31.831Z,99902.73
2022-11-24T08:44:00.318Z,99908.95
2022-11-24T08:46:29.035Z,99911.52
2022-11-24T08:48:57.548Z,99914.27
2022-11-24T08:51:27.470Z,99913.08
2022-11-24T08:54:01.586Z,99913.90
2022-11-24T08:56:32.785Z,99918.66
2022-11-24T08:59:01.231Z,99919.47
2022-11-24T09:01:30.071Z,99915.63
2022-11-24T09:03:58.738Z,99917.85
2022-11-24T09:06:32.521Z,99925.88
2022-11-24T09:09:01.118Z,99926.46
2022-11-24T09:11:29.637Z,99928.05
2022-11-24T09:13:58.329Z,99925.75
2022-11-24T09:16:29.261Z,99924.95
2022-11-24T09:19:00.453Z,99927.05
2022-11-24T09:21:29.903Z,99923.81
2022-11-24T09:23:58.722Z,99925.52
2022-11-24T09:26:30.030Z,99926.15
2022-11-24T09:29:00.306Z,99928.81
2022-11-24T09:31:34.784Z,99929.60
2022-11-24T09:34:06.109Z,99927.15
2022-11-24T09:36:34.622Z,99928.05
2022-11-24T09:39:03.895Z,99922.98
2022-11-24T09:42:09.942Z,99921.04
2022-11-24T09:45:10.091Z,99920.69
2022-11-24T09:47:51.459Z,99921.44
2022-11-24T09:50:26.031Z,99915.45
2022-11-24T09:53:04.034Z,99913.23
2022-11-24T09:55:55.243Z,99911.67
2022-11-24T09:58:57.456Z,99910.52
2022-11-24T10:01:37.475Z,99913.41
2022-11-24T10:04:16.883Z,99910.55
2022-11-24T10:07:04.265Z,99911.90
2022-11-24T10:09:44.424Z,99912.59
2022-11-24T10:12:54.254Z,99910.57
2022-11-24T10:15:45.851Z,99915.87
2022-11-24T10:18:49.519Z,99917.52
2022-11-24T10:21:36.186Z,99919.73
2022-11-24T10:24:43.377Z,99919.58
2022-11-24T10:27:19.101Z,99919.02
2022-11-24T10:29:51.924Z,99918.46
2022-11-24T10:32:44.377Z,99922.58
2022-11-24T10:35:17.661Z,99925.76
2022-11-24T10:38:18.339Z,99922.95
2022-11-24T10:40:57.508Z,99927.17
2022-11-24T10:43:30.709Z,99928.83
2022-11-24T10:46:24.607Z,99928.15
2022-11-24T10:49:05.345Z,99927.65
2022-11-24T10:51:42.430Z,99935.27
2022-11-24T10:54:17.035Z,99940.87
2022-11-24T10:56:47.734Z,99946.09
2022-11-24T10:59:24.861Z,99946.17
2022-11-24T11:01:54.122Z,99948.13
2022-11-24T11:04:35.364Z,99944.96
2022-11-24T11:07:23.210Z,99950.20
2022-11-24T11:10:11.918Z,99949.55
2022-11-24T11:12:44.590Z,99949.73
2022-11-24T11:15:32.264Z,99950.52
2022-11-24T11:18:01.647Z,99954.95
2022-11-24T11:20:32.965Z,99954.59
2022-11-24T11:23:14.412Z,99953.23
2022-11-24T11:25:43.970Z,99948.91
2022-11-24T11:28:18.877Z,99948.48
2022-11-24T11:31:21.703Z,99948.36
2022-11-24T11:34:07.361Z,99946.14
2022-11-24T11:36:51.871Z,99954.69
2022-11-24T11:39:36.108Z,99956.64
2022-11-24T11:42:04.353Z,99951.75
2022-11-24T11:44:50.205Z,99945.84
2022-11-24T11:47:33.804Z,99948.69
2022-11-24T11:50:03.012Z,99948.67
2022-11-24T11:52:48.196Z,99946.76
2022-11-24T11:55:35.357Z,99943.99
2022-11-24T11:58:36.326Z,99940.67
2022-11-24T12:01:57.480Z,99942.48
2022-11-24T12:04:58.584Z,99948.89
2022-11-24T12:07:45.800Z,99949.05
2022-11-24T12:10:41.866Z,99949.54
2022-11-24T12:13:22.278Z,99946.02
2022-11-24T12:15:55.182Z,99946.88
2022-11-24T12:19:30.728Z,99942.54
2022-11-24T12:22:21.948Z,99947.63
2022-11-24T12:25:01.053Z,99951.10
2022-11-24T12:28:04.252Z,99949.16
2022-11-24T12:30:58.428Z,99950.14
2022-11-24T12:34:01.333Z,99953.17
2022-11-24T12:36:52.809Z,99957.06
2022-11-24T12:39:28.191Z,99960.48
2022-11-24T12:42:12.257Z,99966.30
2022-11-24T12:44:44.652Z,99969.42
2022-11-24T12:47:25.707Z,99969.13
2022-11-24T12:50:13.607Z,99967.41
2022-11-24T12:52:48.426Z,99970.46
2022-11-24T12:55:23.529Z,99968.56
2022-11-24T12:58:13.607Z,99964.61
2022-11-24T13:01:14.633Z,99961.20
2022-11-24T13:04:10.940Z,99960.92
2022-11-24T13:07:18.429Z,99963.04
2022-11-24T13:10:46.514Z,99963.25
2022-11-24T13:13:14.959Z,99967.21
2022-11-24T13:16:34.777Z,99961.06
2022-11-24T13:19:14.116Z,99964.88
2022-11-24T13:21:53.689Z,99966.77
2022-11-24T13:24:25.979Z,99973.13
2022-11-24T13:27:16.243Z,99976.31
2022-11-24T13:29:46.909Z,99976.16
2022-11-24T13:32:15.860Z,99978.92
2022-11-24T13:34:46.017Z,99982.89
2022-11-24T13:37:29.080Z,99983.30
2022-11-24T13:40:13.735Z,99984.38
2022-11-24T13:43:01.708Z,99985.96
2022-11-24T13:45:55.032Z,99986.06
2022-11-24T13:48:47.158Z,99987.29
2022-11-24T13:51:23.745Z,99980.88
2022-11-24T13:53:55.221Z,99975.44
2022-11-24T13:56:26.760Z,99977.53
2022-11-24T13:59:17.793Z,99981.05
2022-11-24T14:01:56.473Z,99978.57
2022-11-24T14:07:17.190Z,99986.94
2022-11-24T14:09:50.347Z,99989.13
2022-11-24T14:12:21.764Z,99989.65
2022-11-24T14:14:52.782Z,99988.37
2022-11-24T14:17:23.831Z,99992.61
2022-11-24T14:19:54.416Z,99991.04
2022-11-24T14:22:41.692Z,99995.70
2022-11-24T14:25:30.521Z,99995.04
2022-11-24T14:28:00.739Z,100001.53
2022-11-24T14:30:29.332Z,100004.43
2022-11-24T14:33:00.086Z,100006.30
2022-11-24T14:35:30.179Z,100009.02
2022-11-24T14:38:00.270Z,100008.71
2022-11-24T14:40:50.478Z,100010.42
2022-11-24T14:43:28.458Z,100015.33
2022-11-24T14:46:10.202Z,100015.11
2022-11-24T14:48:38.674Z,100015.08
2022-11-24T14:51:25.195Z,100013.71
2022-11-24T14:53:58.404Z,100013.78
2022-11-24T14:56:34.774Z,100022.04
2022-11-24T14:59:04.805Z,100022.27
2022-11-24T15:01:35.125Z,100025.09
2022-11-24T15:04:32.514Z,100028.97
2022-11-24T15:07:26.116Z,100031.79
2022-11-24T15:10:00.348Z,100034.48
2022-11-24T15:12:34.925Z,100036.02
2022-11-24T15:15:15.278Z,100039.15
2022-11-24T15:18:01.643Z,100039.10
2022-11-24T15:20:35.639Z,100043.92
2022-11-24T15:23:23.262Z,100042.73
2022-11-24T15:25:56.591Z,100041.55
2022-11-24T15:28:28.224Z,100045.53
2022-11-24T15:31:01.543Z,100045.45
2022-11-24T15:33:31.316Z,100049.60
2022-11-24T15:36:00.716Z,100053.73
2022-11-24T15:38:29.099Z,100060.23
2022-11-24T15:41:00.471Z,100062.14
2022-11-24T15:43:40.720Z,100059.94
2022-11-24T15:46:10.210Z,100068.05
2022-11-24T15:48:38.792Z,100064.44
2022-11-24T15:51:11.725Z,100069.03
2022-11-24T15:53:44.313Z,100070.36
2022-11-24T15:56:19.541Z,100074.39
2022-11-24T15:58:48.874Z,100078.61
2022-11-24T16:01:17.405Z,100079.27
2022-11-24T16:03:47.831Z,100075.46
2022-11-24T16:06:24.524Z,100071.39
2022-11-24T16:08:54.663Z,100071.56
2022-11-24T16:11:23.854Z,100075.11
2022-11-24T16:13:54.351Z,100077.80
2022-11-24T16:16:25.635Z,100079.95
2022-11-24T16:18:54.237Z,100080.38
2022-11-24T16:21:23.496Z,100080.95
2022-11-24T16:23:52.188Z,100077.58
2022-11-24T16:26:21.016Z,100081.17
2022-11-24T16:28:49.621Z,100082.41
2022-11-24T16:31:20.152Z,100079.86
2022-11-24T16:33:48.604Z,100080.20
2022-11-24T16:36:17.066Z,100083.25
2022-11-24T16:38:46.151Z,100084.23
2022-11-24T16:41:15.061Z,100086.11
2022-11-24T16:43:43.620Z,100095.02
2022-11-24T16:46:22.291Z,100095.20
2022-11-24T16:48:53.708Z,100098.58
2022-11-24T16:51:24.199Z,100102.13
2022-11-24T16:54:02.485Z,100105.05
2022-11-24T16:56:32.348Z,100109.86
2022-11-24T16:59:01.896Z,100115.11
2022-11-24T17:01:30.728Z,100115.70
2022-11-24T17:04:00.473Z,100114.37
2022-11-24T17:06:29.774Z,100117.69
2022-11-24T17:08:58.622Z,100117.26
2022-11-24T17:11:28.975Z,100117.88
2022-11-24T17:14:00.665Z,100118.33
2022-11-24T17:16:30.675Z,100124.45
2022-11-24T17:19:00.416Z,100127.37
2022-11-24T17:21:29.163Z,100130.08
2022-11-24T17:24:01.563Z,100127.67
2022-11-24T17:26:30.417Z,100129.73
2022-11-24T17:28:59.987Z,100130.78
2022-11-24T17:31:37.856Z,100137.45
2022-11-24T17:34:08.002Z,100136.92
2022-11-24T17:36:42.298Z,100140.17
2022-11-24T17:39:14.494Z,100141.86
2022-11-24T17:41:43.517Z,100143.91
2022-11-24T17:44:13.635Z,100142.34
2022-11-24T17:46:43.723Z,100147.45
2022-11-24T17:49:16.015Z,100151.90
2022-11-24T17:51:46.702Z,100151.22
2022-11-24T17:57:07.106Z,100155.92
2022-11-24T17:59:38.275Z,100157.59
2022-11-24T18:02:10.646Z,100155.83
2022-11-24T18:04:39.943Z,100157.69
2022-11-24T18:07:08.611Z,100156.33
2022-11-24T18:09:38.778Z,100163.69
2022-11-24T18:12:08.287Z,100169.79
2022-11-24T18:14:39.353Z,100168.65
2022-11-24T18:17:11.256Z,100172.56
2022-11-24T18:19:40.786Z,100172.55
2022-11-24T18:22:10.241Z,100176.48
2022-11-24T18:24:39.676Z,100178.25
2022-11-24T18:27:09.295Z,100176.40
2022-11-24T18:29:38.573Z,100181.01
2022-11-24T18:32:08.925Z,100180.34
2022-11-24T18:34:40.831Z,100178.27
2022-11-24T18:37:14.113Z,100177.88
2022-11-24T18:39:43.783Z,100182.95
2022-11-24T18:42:18.561Z,100183.96
2022-11-24T18:44:52.566Z,100189.10
2022-11-24T18:47:23.840Z,100191.50
2022-11-24T18:49:52.995Z,100187.00
2022-11-24T18:52:23.852Z,100183.04
2022-11-24T18:54:54.830Z,100184.27
2022-11-24T18:57:24.182Z,100188.17
2022-11-24T18:59:54.208Z,100191.69
2022-11-24T19:02:24.894Z,100189.34
2022-11-24T19:04:54.582Z,100188.66
2022-11-24T19:07:23.603Z,100190.66
2022-11-24T19:09:53.107Z,100194.73
2022-11-24T19:12:22.860Z,100197.92
2022-11-24T19:14:51.997Z,100198.59
2022-11-24T19:17:26.169Z,100197.19
2022-11-24T19:19:55.775Z,100197.36
2022-11-24T19:22:26.551Z,100195.19
2022-11-24T19:24:56.387Z,100195.24
2022-11-24T19:27:26.093Z,100196.13
2022-11-24T19:29:55.883Z,100196.45
2022-11-24T19:32:26.080Z,100202.25
2022-11-24T19:34:55.846Z,100201.05
2022-11-24T19:37:25.854Z,100205.01
2022-11-24T19:39:56.677Z,100210.17
2022-11-24T19:42:28.867Z,100213.47
2022-11-24T19:45:04.032Z,100216.41
2022-11-24T19:47:34.706Z,100212.86
2022-11-24T19:50:10.212Z,100215.83
2022-11-24T19:52:39.750Z,100218.60
2022-11-24T19:55:09.698Z,100220.78
2022-11-24T19:57:40.430Z,100222.65
2022-11-24T20:00:15.445Z,100221.10
2022-11-24T20:02:52.242Z,100226.42
2022-11-24T20:05:28.413Z,100225.41
2022-11-24T20:07:58.398Z,100228.36
2022-11-24T20:23:00.290Z,100240.42
2022-11-24T20:25:29.775Z,100237.02
2022-11-24T20:31:11.178Z,100234.41
2022-11-24T20:33:47.344Z,100237.33
2022-11-24T20:42:40.623Z,100232.77
2022-11-24T20:45:16.720Z,100227.02
2022-11-24T20:47:51.292Z,100232.34
2022-11-24T20:50:27.347Z,100232.87
2022-11-24T20:53:01.916Z,100233.19
2022-11-24T20:55:37.010Z,100239.48
2022-11-24T20:58:05.930Z,100236.91
2022-11-24T21:00:40.605Z,100233.77
2022-11-24T21:03:16.955Z,100232.58
2022-11-24T21:05:56.794Z,100227.81
2022-11-24T21:08:25.953Z,100229.89
2022-11-24T21:11:02.822Z,100227.36
2022-11-24T21:13:35.853Z,100229.63
2022-11-24T21:16:15.413Z,100225.27
2022-11-24T21:18:52.746Z,100226.83
2022-11-24T21:21:34.753Z,100229.22
2022-11-24T21:24:15.240Z,100229.40
2022-11-24T21:26:48.547Z,100232.82
2022-11-24T21:29:19.628Z,100235.90
2022-11-24T21:31:53.122Z,100236.89
2022-11-24T21:34:28.412Z,100241.59
2022-11-24T21:36:56.924Z,100245.90
2022-11-24T21:39:25.455Z,100250.09
2022-11-24T21:41:54.144Z,100252.88
2022-11-24T21:44:39.185Z,100255.00
2022-11-24T21:47:07.553Z,100253.70
2022-11-24T21:49:36.132Z,100252.97
2022-11-24T21:52:04.793Z,100254.30
2022-11-24T21:54:35.887Z,100254.95
2022-11-24T21:57:06.026Z,100256.98
2022-11-24T21:59:35.742Z,100261.94
2022-11-24T22:02:08.770Z,100264.32
2022-11-24T22:04:38.707Z,100263.61
2022-11-24T22:07:07.329Z,100266.38
2022-11-24T22:09:35.741Z,100270.67
2022-11-24T22:12:04.475Z,100268.64
2022-11-24T22:14:36.178Z,100267.42
2022-11-24T22:17:08.988Z,100264.04
2022-11-24T22:19:37.464Z,100263.48
2022-11-24T22:22:05.998Z,100265.73
2022-11-24T22:24:34.467Z,100268.67
2022-11-24T22:27:03.400Z,100266.38
2022-11-24T22:29:31.847Z,100265.83
2022-11-24T22:32:00.241Z,100267.08
2022-11-24T22:34:29.936Z,100267.73
2022-11-24T22:36:58.442Z,100268.39
2022-11-24T22:39:26.881Z,100265.95
2022-11-24T22:41:55.347Z,100269.55
2022-11-24T22:44:49.445Z,100272.78
2022-11-24T22:47:17.865Z,100273.79
2022-11-24T22:49:46.217Z,100273.77
2022-11-24T22:52:15.455Z,100277.23
2022-11-24T22:54:43.888Z,100278.80
2022-11-24T22:57:12.255Z,100280.65
2022-11-24T22:59:40.612Z,100278.56
2022-11-24T23:02:09.181Z,100282.35
2022-11-24T23:04:37.752Z,100283.08
2022-11-24T23:07:06.350Z,100286.89
2022-11-24T23:09:34.683Z,100288.11
2022-11-24T23:12:03.152Z,100292.54
2022-11-24T23:14:31.571Z,100292.50
2022-11-24T23:17:01.058Z,100295.23
2022-11-24T23:19:29.428Z,100297.46
2022-11-24T23:21:57.874Z,100300.67
2022-11-24T23:24:26.230Z,100303.42
2022-11-24T23:26:54.575Z,100303.21
2022-11-24T23:29:22.955Z,100300.10
2022-11-24T23:31:51.419Z,100301.96
2022-11-24T23:34:19.828Z,100299.41
2022-11-24T23:36:48.264Z,100297.18
2022-11-24T23:39:16.775Z,100297.83
2022-11-24T23:41:45.214Z,100303.99
2022-11-24T23:44:39.339Z,100298.15
2022-11-24T23:47:07.702Z,100298.34
2022-11-24T23:49:36.208Z,100302.45
2022-11-24T23:52:04.934Z,100300.14
2022-11-24T23:54:33.544Z,100299.88
2022-11-24T23:57:02.182Z,100297.33
2022-11-24T23:59:30.529Z,100298.76
